Time;durP1;ratioP1;P1;durP2;ratioP2;P2;SDS_P1;SDS_P2;PMS_P1;PMS_P2;Temp;Humidity;BMP_temperature;BMP_pressure;BME280_temperature;BME280_humidity;BME280_pressure;Samples;Min_cycle;Max_cycle;Signal;HPM_P1;HPM_P2
2021/10/04 06:05:20;;;;;;;15.90;6.72;;;;;;;7.39;77.00;98792.50;1861886;77;21689;-58
2021/10/04 06:07:47;;;;;;;15.08;6.78;;;;;;;7.50;76.75;98789.40;1861493;77;20942;-60
2021/10/04 06:10:16;;;;;;;16.30;6.53;;;;;;;7.62;76.46;98789.25;1861545;77;20828;-59
2021/10/04 06:12:42;;;;;;;13.50;6.50;;;;;;;7.72;76.25;98798.17;1861560;77;20844;-58
2021/10/04 06:15:10;;;;;;;18.73;8.30;;;;;;;7.83;76.06;98799.86;1861798;77;21391;-60
2021/10/04 06:17:37;;;;;;;18.90;8.30;;;;;;;7.94;75.75;98798.08;1861525;77;21069;-59
2021/10/04 06:20:05;;;;;;;16.00;10.32;;;;;;;8.04;75.28;98792.31;1861436;77;20852;-58
2021/10/04 06:22:32;;;;;;;15.55;9.25;;;;;;;8.13;75.14;98802.80;1858281;77;21368;-60
2021/10/04 06:24:59;;;;;;;10.00;6.45;;;;;;;8.22;74.78;98807.94;1778287;80;20920;-59
2021/10/04 06:27:26;;;;;;;12.35;6.35;;;;;;;8.32;74.34;98814.44;1781669;80;20988;-59
2021/10/04 06:29:52;;;;;;;9.35;6.60;;;;;;;8.41;74.23;98814.27;1780009;80;21705;-58
2021/10/04 06:32:19;;;;;;;14.25;6.22;;;;;;;8.50;73.76;98820.73;1780044;79;20980;-59
2021/10/04 06:34:46;;;;;;;12.65;7.62;;;;;;;8.54;73.47;98823.16;1792379;79;20974;-58
2021/10/04 06:37:12;;;;;;;15.93;9.35;;;;;;;8.61;73.53;98825.06;1786260;80;21025;-59
2021/10/04 06:39:39;;;;;;;20.57;10.70;;;;;;;8.65;73.39;98828.83;1786649;80;21650;-60
2021/10/04 06:42:06;;;;;;;18.60;11.50;;;;;;;8.68;73.29;98822.98;1786357;80;21110;-61
2021/10/04 06:44:33;;;;;;;13.30;6.47;;;;;;;8.71;73.25;98827.29;1786574;80;21069;-58
2021/10/04 06:47:01;;;;;;;10.32;7.83;;;;;;;8.74;73.12;98825.94;1789190;79;20988;-61
2021/10/04 06:49:27;;;;;;;12.18;7.05;;;;;;;8.76;73.11;98825.17;1797370;79;20985;-58
2021/10/04 06:51:54;;;;;;;17.82;8.68;;;;;;;8.80;72.98;98825.73;1789138;79;20919;-60
2021/10/04 06:54:21;;;;;;;14.93;8.40;;;;;;;8.83;72.75;98831.09;1779430;80;21788;-61
2021/10/04 06:56:47;;;;;;;17.32;7.53;;;;;;;8.86;72.60;98832.70;1764026;80;20990;-59
2021/10/04 06:59:14;;;;;;;13.80;7.67;;;;;;;8.90;72.69;98837.02;1781579;79;20853;-60
2021/10/04 07:01:41;;;;;;;14.75;7.45;;;;;;;8.92;72.51;98836.22;1778846;80;20920;-60
2021/10/04 07:04:08;;;;;;;14.45;7.78;;;;;;;8.94;72.58;98838.91;1778167;80;21487;-61
2021/10/04 07:06:35;;;;;;;10.18;6.75;;;;;;;8.99;72.47;98846.14;1748050;82;21110;-59
2021/10/04 07:09:01;;;;;;;9.83;7.00;;;;;;;9.03;72.20;98842.41;1747962;82;20845;-59
2021/10/04 07:11:31;;;;;;;14.87;6.72;;;;;;;9.07;72.23;98845.64;1755156;80;20912;-61
2021/10/04 07:13:58;;;;;;;12.90;7.35;;;;;;;9.11;72.31;98848.08;1782496;80;21495;-59
2021/10/04 07:16:24;;;;;;;16.62;8.88;;;;;;;9.17;71.74;98847.03;1778378;80;20877;-58
2021/10/04 07:18:51;;;;;;;18.70;7.92;;;;;;;9.24;71.49;98852.13;1778292;80;21736;-59
2021/10/04 07:21:17;;;;;;;14.68;8.28;;;;;;;9.29;71.41;98845.48;1778273;80;21006;-61
2021/10/04 07:23:44;;;;;;;9.88;5.45;;;;;;;9.38;71.27;98846.58;1758654;80;21385;-61
2021/10/04 07:26:10;;;;;;;10.60;5.65;;;;;;;9.47;70.91;98843.14;1755302;80;20909;-62
2021/10/04 07:28:39;;;;;;;11.43;5.65;;;;;;;9.60;70.93;98844.53;1778103;80;20889;-61
2021/10/04 07:31:06;;;;;;;9.30;5.17;;;;;;;9.75;70.42;98843.77;1772605;80;21530;-58
2021/10/04 07:33:33;;;;;;;12.35;5.05;;;;;;;9.85;69.88;98849.13;1842164;77;20864;-59
2021/10/04 07:35:59;;;;;;;12.73;5.67;;;;;;;9.97;69.65;98840.32;1841466;77;21454;-59
2021/10/04 07:38:26;;;;;;;11.33;5.22;;;;;;;10.11;69.11;98836.05;1813035;77;20978;-60
2021/10/04 07:40:53;;;;;;;12.30;5.62;;;;;;;10.30;69.14;98838.51;1814207;79;20903;-61
2021/10/04 07:43:19;;;;;;;9.58;5.55;;;;;;;10.50;68.60;98842.54;1814309;79;21473;-61
2021/10/04 07:45:47;;;;;;;13.13;5.58;;;;;;;10.68;68.16;98841.97;1829208;77;20919;-60
2021/10/04 07:48:14;;;;;;;11.88;5.50;;;;;;;10.86;67.42;98834.70;1849144;77;20872;-59
2021/10/04 07:50:44;;;;;;;10.43;5.30;;;;;;;11.03;66.92;98837.61;1848962;77;20884;-61
2021/10/04 07:53:09;;;;;;;9.05;4.92;;;;;;;11.16;66.90;98830.34;1833172;77;20948;-60
2021/10/04 07:55:36;;;;;;;10.55;5.62;;;;;;;11.35;66.28;98832.69;1765989;80;21864;-59
2021/10/04 07:58:03;;;;;;;22.00;5.92;;;;;;;11.51;66.18;98832.88;1840118;78;20869;-58
2021/10/04 08:00:29;;;;;;;13.95;5.50;;;;;;;11.70;65.67;98837.91;1845981;77;20913;-59
2021/10/04 08:02:56;;;;;;;8.68;5.15;;;;;;;11.89;65.53;98834.86;1847317;77;20884;-59
2021/10/04 08:05:22;;;;;;;9.18;6.62;;;;;;;12.06;64.97;98833.91;1847298;77;21384;-62
2021/10/04 08:07:49;;;;;;;13.75;7.37;;;;;;;12.17;64.19;98831.44;1847151;77;21095;-58
2021/10/04 08:10:16;;;;;;;7.60;5.10;;;;;;;12.27;64.01;98834.02;1847018;77;21136;-59
2021/10/04 08:12:43;;;;;;;11.15;6.70;;;;;;;12.36;63.95;98829.65;1847154;77;20896;-61
2021/10/04 08:15:11;;;;;;;14.28;5.58;;;;;;;12.47;63.57;98825.00;1847071;77;20881;-60
2021/10/04 08:17:39;;;;;;;9.85;5.85;;;;;;;12.57;63.28;98824.12;1847106;77;20920;-60
2021/10/04 08:20:08;;;;;;;14.70;6.03;;;;;;;12.69;63.78;98831.27;1847418;77;21106;-60
2021/10/04 08:22:36;;;;;;;6.60;4.97;;;;;;;12.86;63.22;98829.73;1846923;77;20829;-58
2021/10/04 08:25:06;;;;;;;9.90;6.80;;;;;;;13.00;62.50;98824.50;1844106;77;20952;-57
2021/10/04 08:27:32;;;;;;;13.72;5.55;;;;;;;13.05;62.24;98823.08;1832404;77;20967;-59
2021/10/04 08:29:59;;;;;;;11.78;4.83;;;;;;;13.12;62.18;98824.13;1848734;77;20909;-58
2021/10/04 08:32:25;;;;;;;13.53;5.83;;;;;;;13.25;62.53;98817.52;1773267;80;21112;-61
2021/10/04 08:34:52;;;;;;;14.05;5.28;;;;;;;13.40;61.77;98809.23;1783176;80;20968;-62
2021/10/04 08:37:19;;;;;;;16.42;6.15;;;;;;;13.52;62.00;98809.63;1791589;80;20916;-61
2021/10/04 08:39:45;;;;;;;12.85;6.03;;;;;;;13.65;61.50;98806.23;1792142;80;21509;-59
2021/10/04 08:42:13;;;;;;;21.93;8.00;;;;;;;13.79;61.12;98813.03;1792094;80;20915;-59
2021/10/04 08:44:41;;;;;;;9.40;5.80;;;;;;;13.87;60.81;98802.97;1791975;80;21109;-59
2021/10/04 08:47:08;;;;;;;11.97;5.42;;;;;;;13.92;60.87;98803.44;1791876;80;21419;-58
2021/10/04 08:49:35;;;;;;;9.28;5.25;;;;;;;13.99;60.64;98811.95;1791425;80;20934;-57
2021/10/04 08:52:03;;;;;;;9.63;5.10;;;;;;;14.07;60.35;98800.49;1790859;80;20935;-57
2021/10/04 08:54:30;;;;;;;9.30;4.92;;;;;;;14.18;59.91;98797.89;1787998;80;21110;-58
2021/10/04 08:56:57;;;;;;;12.40;5.65;;;;;;;14.27;59.96;98794.80;1811449;78;21167;-60
2021/10/04 08:59:24;;;;;;;8.98;5.25;;;;;;;14.41;59.55;98802.95;1765238;81;21598;-58
2021/10/04 09:01:51;;;;;;;13.32;5.35;;;;;;;14.49;59.21;98799.02;1761662;80;21015;-57
2021/10/04 09:04:19;;;;;;;8.65;4.75;;;;;;;14.58;59.13;98795.89;1785722;79;21048;-60
2021/10/04 09:06:46;;;;;;;12.93;5.28;;;;;;;14.64;58.80;98795.27;1808993;79;21063;-58
2021/10/04 09:09:15;;;;;;;10.68;5.08;;;;;;;14.67;58.35;98788.75;1808947;79;21159;-58
2021/10/04 09:11:49;;;;;;;14.05;5.33;;;;;;;14.70;58.19;98798.91;1776952;80;20909;-60
2021/10/04 09:14:30;;;;;;;12.15;6.00;;;;;;;14.73;58.01;98787.54;1808628;79;20932;-61
2021/10/04 09:17:03;;;;;;;13.68;6.37;;;;;;;14.77;58.13;98793.93;1809214;79;20896;-61
2021/10/04 09:19:38;;;;;;;16.32;6.20;;;;;;;14.86;58.43;98796.19;1809056;79;21495;-58
2021/10/04 09:22:17;;;;;;;14.80;6.50;;;;;;;15.02;58.18;98790.77;1800201;79;21503;-60
2021/10/04 09:24:51;;;;;;;11.53;6.55;;;;;;;15.18;57.69;98796.66;1796870;79;21040;-60
2021/10/04 09:27:37;;;;;;;17.25;6.12;;;;;;;15.28;57.26;98796.46;1797342;79;21102;-60
2021/10/04 09:30:18;;;;;;;14.30;5.45;;;;;;;15.32;56.99;98793.95;1796978;79;21055;-58
2021/10/04 09:32:47;;;;;;;12.65;5.83;;;;;;;15.28;56.87;98799.70;1796514;79;21443;-60
2021/10/04 09:35:28;;;;;;;15.90;5.72;;;;;;;15.21;56.91;98799.31;1801887;79;21739;-60
2021/10/04 09:38:08;;;;;;;9.88;5.28;;;;;;;15.16;57.03;98802.10;1789611;79;21052;-57
2021/10/04 09:40:38;;;;;;;8.93;5.10;;;;;;;15.15;57.42;98798.59;1796723;79;21027;-59
2021/10/04 09:43:30;;;;;;;10.18;5.53;;;;;;;15.16;57.21;98802.10;1762162;80;21425;-61
2021/10/04 09:46:02;;;;;;;7.15;4.85;;;;;;;15.12;57.28;98795.72;1811724;77;21050;-58
2021/10/04 09:48:31;;;;;;;11.40;5.05;;;;;;;15.06;57.75;98798.52;1837015;77;20948;-60
2021/10/04 09:51:00;;;;;;;8.95;5.03;;;;;;;15.02;57.69;98796.17;1838596;78;20994;-57
2021/10/04 09:53:26;;;;;;;10.78;4.80;;;;;;;14.97;57.85;98790.87;1815629;78;20890;-58
2021/10/04 09:55:53;;;;;;;14.07;5.22;;;;;;;14.95;58.02;98787.67;1839978;78;20892;-61
2021/10/04 09:58:23;;;;;;;10.15;4.70;;;;;;;14.94;58.09;98786.06;1840452;78;20990;-60
2021/10/04 10:01:02;;;;;;;10.28;4.90;;;;;;;14.95;58.11;98788.22;1843275;77;21073;-60
2021/10/04 10:03:43;;;;;;;19.60;5.67;;;;;;;14.93;58.08;98787.72;1845411;77;20958;-59
2021/10/04 10:06:01;;;;;;;10.50;5.80;;;;;;;14.90;58.14;98785.61;1843419;77;20956;-57
2021/10/04 10:08:28;;;;;;;10.90;4.90;;;;;;;14.89;58.11;98780.76;1845128;77;20986;-57
2021/10/04 10:11:00;;;;;;;8.03;5.42;;;;;;;14.88;58.26;98787.27;1845782;77;21023;-58
2021/10/04 10:13:28;;;;;;;10.80;4.83;;;;;;;14.89;58.13;98786.16;1845765;77;21185;-57
2021/10/04 10:16:05;;;;;;;8.40;5.20;;;;;;;14.94;58.00;98787.95;1846838;77;20915;-58
2021/10/04 10:18:42;;;;;;;14.30;5.15;;;;;;;14.97;57.91;98780.08;1847164;77;20868;-59
2021/10/04 10:21:09;;;;;;;13.05;5.37;;;;;;;14.97;58.09;98782.77;1847056;77;21035;-59
2021/10/04 10:23:57;;;;;;;11.28;5.22;;;;;;;14.96;58.55;98790.61;1847011;77;21013;-57
2021/10/04 10:26:45;;;;;;;9.35;5.28;;;;;;;14.96;58.74;98786.55;1847226;77;21035;-58
2021/10/04 10:29:21;;;;;;;12.28;5.10;;;;;;;14.94;58.52;98788.76;1846963;77;20934;-56
2021/10/04 10:31:56;;;;;;;13.65;5.33;;;;;;;14.98;57.93;98786.25;1846907;77;20932;-59
2021/10/04 10:34:33;;;;;;;10.58;4.53;;;;;;;15.05;58.13;98790.16;1846930;77;20931;-59
2021/10/04 10:37:26;;;;;;;12.03;4.55;;;;;;;15.22;58.01;98792.80;1847045;77;20892;-59
2021/10/04 10:40:15;;;;;;;10.05;5.20;;;;;;;15.36;57.73;98786.29;1846889;77;21103;-60
2021/10/04 10:43:04;;;;;;;12.98;5.17;;;;;;;15.42;57.72;98790.50;1846948;77;20857;-59
2021/10/04 10:45:47;;;;;;;12.28;4.83;;;;;;;15.41;57.28;98785.38;1821289;77;20960;-60
2021/10/04 10:48:16;;;;;;;12.93;5.20;;;;;;;15.34;57.70;98797.94;1846798;77;20931;-59
2021/10/04 10:50:48;;;;;;;16.40;5.42;;;;;;;15.29;57.70;98795.89;1846579;77;20868;-59
2021/10/04 10:53:26;;;;;;;12.35;4.50;;;;;;;15.37;57.95;98791.14;1847109;77;20928;-57
2021/10/04 10:56:03;;;;;;;13.35;4.92;;;;;;;15.54;57.79;98784.61;1846872;77;20868;-57
2021/10/04 10:58:34;;;;;;;12.55;4.75;;;;;;;15.71;57.23;98786.91;1847018;77;20884;-57
2021/10/04 11:01:13;;;;;;;13.45;4.37;;;;;;;15.83;57.26;98782.31;1842906;77;20876;-57
2021/10/04 11:03:55;;;;;;;9.38;4.35;;;;;;;15.88;56.72;98786.80;1841603;78;21411;-59
2021/10/04 11:06:39;;;;;;;9.08;4.40;;;;;;;15.85;56.56;98780.11;1841312;78;21098;-57
2021/10/04 11:09:06;;;;;;;9.10;4.25;;;;;;;15.82;56.33;98779.94;1841072;78;20955;-59
2021/10/04 11:11:34;;;;;;;9.15;4.55;;;;;;;15.77;56.52;98778.14;1841124;78;20864;-59
2021/10/04 11:14:08;;;;;;;11.25;3.90;;;;;;;15.74;56.87;98780.09;1841269;78;20881;-58
2021/10/04 11:16:43;;;;;;;17.73;4.70;;;;;;;15.75;56.45;98766.86;1840134;77;21409;-60
2021/10/04 11:19:25;;;;;;;11.05;4.15;;;;;;;15.72;55.63;98782.31;1841181;78;21113;-56
2021/10/04 11:21:52;;;;;;;9.38;4.78;;;;;;;15.67;55.38;98785.92;1841079;78;20911;-57
2021/10/04 11:24:20;;;;;;;11.68;4.42;;;;;;;15.64;55.24;98782.47;1841489;78;20944;-57
2021/10/04 11:26:47;;;;;;;13.65;4.75;;;;;;;15.62;55.19;98769.83;1841417;78;21418;-59
2021/10/04 11:29:13;;;;;;;10.90;4.72;;;;;;;15.61;54.86;98759.34;1841245;78;20911;-56
2021/10/04 11:31:44;;;;;;;8.88;4.37;;;;;;;15.61;54.48;98782.30;1793657;78;21871;-57
2021/10/04 11:34:11;;;;;;;10.30;4.40;;;;;;;15.60;53.86;98777.98;1815779;78;20932;-59
2021/10/04 11:36:48;;;;;;;13.93;4.90;;;;;;;15.59;53.84;98771.78;1815794;78;20950;-59
2021/10/04 11:39:28;;;;;;;12.05;5.50;;;;;;;15.61;53.30;98771.50;1821645;77;21435;-59
2021/10/04 11:42:02;;;;;;;13.58;4.92;;;;;;;15.61;53.10;98776.89;1849109;77;20872;-57
2021/10/04 11:44:28;;;;;;;13.08;4.78;;;;;;;15.62;53.12;98781.17;1849181;77;21125;-58
2021/10/04 11:47:03;;;;;;;10.38;5.22;;;;;;;15.62;53.37;98781.17;1849073;77;20916;-58
2021/10/04 11:49:33;;;;;;;6.05;4.42;;;;;;;15.65;53.00;98784.62;1849626;77;20872;-58
2021/10/04 11:52:03;;;;;;;10.40;3.80;;;;;;;15.64;53.50;98772.21;1815799;79;20958;-59
2021/10/04 11:54:48;;;;;;;10.65;4.17;;;;;;;15.62;52.48;98774.42;1815929;78;21046;-59
2021/10/04 11:57:22;;;;;;;13.50;5.00;;;;;;;15.60;53.03;98774.73;1823425;78;21117;-59
2021/10/04 12:00:03;;;;;;;8.90;5.08;;;;;;;15.61;52.50;98778.24;1839562;78;20964;-60
2021/10/04 12:08:09;;;;;;;8.23;4.95;;;;;;;15.50;52.19;98772.25;1768420;81;20838;-57
2021/10/04 12:10:56;;;;;;;12.40;4.35;;;;;;;15.46;51.92;98774.52;1778098;80;21733;-57
2021/10/04 12:13:34;;;;;;;12.20;4.97;;;;;;;15.41;51.53;98766.48;1768270;81;20913;-58
2021/10/04 12:16:07;;;;;;;12.10;4.20;;;;;;;15.36;51.86;98763.89;1778167;80;20881;-57
2021/10/04 12:18:45;;;;;;;9.25;3.87;;;;;;;15.35;51.62;98779.86;1768296;81;20944;-59
2021/10/04 12:21:25;;;;;;;10.30;4.53;;;;;;;15.32;52.03;98769.66;1777816;80;20913;-58
2021/10/04 12:24:18;;;;;;;13.18;5.28;;;;;;;15.31;52.04;98772.13;1839634;77;21486;-56
2021/10/04 12:27:07;;;;;;;11.25;4.83;;;;;;;15.29;52.16;98769.70;1746324;82;20849;-59
2021/10/04 12:29:46;;;;;;;16.77;6.20;;;;;;;15.29;52.18;98772.95;1777166;80;20849;-57
2021/10/04 12:32:31;;;;;;;12.37;6.03;;;;;;;15.29;52.25;98777.80;1745253;82;21383;-59
2021/10/04 12:35:18;;;;;;;12.53;6.30;;;;;;;15.30;52.54;98769.97;1777330;80;21510;-58
2021/10/04 12:37:56;;;;;;;15.98;8.15;;;;;;;15.31;52.51;98761.33;1746564;82;21093;-58
2021/10/04 12:40:45;;;;;;;15.85;8.28;;;;;;;15.32;52.45;98762.91;1777181;80;20861;-59
2021/10/04 12:43:16;;;;;;;21.60;9.90;;;;;;;15.30;52.35;98774.02;1781759;80;20888;-59
2021/10/04 12:46:11;;;;;;;21.37;10.70;;;;;;;15.29;52.60;98776.99;1815946;79;20880;-61
2021/10/04 12:48:43;;;;;;;20.20;9.93;;;;;;;15.29;53.08;98779.70;1816060;78;20966;-58
2021/10/04 12:51:14;;;;;;;13.30;6.35;;;;;;;15.26;53.33;98780.32;1815684;78;21502;-59
2021/10/04 12:53:54;;;;;;;14.95;5.83;;;;;;;15.23;53.26;98786.31;1816156;78;20876;-59
2021/10/04 12:56:32;;;;;;;15.98;5.03;;;;;;;15.20;53.07;98792.30;1815776;78;21398;-59
2021/10/04 12:59:10;;;;;;;15.95;5.80;;;;;;;15.16;53.09;98781.86;1815740;79;20974;-58
2021/10/04 13:01:52;;;;;;;11.88;4.83;;;;;;;15.13;53.51;98781.91;1812307;78;21066;-58
2021/10/04 13:04:28;;;;;;;12.88;5.12;;;;;;;15.12;53.84;98779.53;1810907;79;21126;-58
2021/10/04 13:06:55;;;;;;;11.57;4.95;;;;;;;15.08;53.83;98786.86;1811211;79;20873;-59
2021/10/04 13:09:23;;;;;;;12.33;5.58;;;;;;;15.07;53.80;98779.08;1810938;79;20912;-58
2021/10/04 13:11:51;;;;;;;17.82;9.45;;;;;;;15.06;53.54;98787.72;1810786;79;21447;-57
2021/10/04 13:14:18;;;;;;;18.80;9.75;;;;;;;15.03;53.35;98781.56;1810685;79;21058;-58
2021/10/04 13:16:47;;;;;;;22.67;7.97;;;;;;;15.02;53.61;98780.52;1810734;79;21069;-57
2021/10/04 13:19:14;;;;;;;15.98;9.10;;;;;;;14.99;53.52;98773.83;1810577;79;20927;-57
2021/10/04 13:21:42;;;;;;;16.23;7.65;;;;;;;14.97;53.40;98778.73;1810919;79;20975;-58
2021/10/04 13:24:08;;;;;;;14.87;7.33;;;;;;;14.96;53.46;98779.01;1810947;79;20971;-58
2021/10/04 13:26:37;;;;;;;10.72;6.05;;;;;;;14.94;53.14;98784.72;1810986;79;20932;-58
2021/10/04 13:29:03;;;;;;;13.48;6.47;;;;;;;14.91;53.29;98785.84;1810966;79;21110;-59
2021/10/04 13:31:30;;;;;;;14.75;7.50;;;;;;;14.89;53.20;98787.50;1810899;79;20931;-61
2021/10/04 13:33:56;;;;;;;20.92;8.93;;;;;;;14.90;53.46;98794.52;1810957;79;21439;-60
2021/10/04 13:36:24;;;;;;;16.90;8.35;;;;;;;14.91;53.46;98789.89;1810971;79;20884;-59
2021/10/04 13:38:51;;;;;;;17.35;7.80;;;;;;;14.92;53.13;98784.22;1810889;79;20959;-58
2021/10/04 13:41:17;;;;;;;13.30;7.72;;;;;;;14.93;53.29;98789.84;1810903;79;21117;-57
2021/10/04 13:43:44;;;;;;;12.68;7.85;;;;;;;14.94;53.35;98787.41;1810798;79;20881;-57
2021/10/04 13:46:11;;;;;;;21.73;7.40;;;;;;;14.96;53.39;98783.86;1811060;79;20941;-59
2021/10/04 13:48:37;;;;;;;14.93;6.80;;;;;;;14.99;53.43;98783.27;1810951;79;20967;-57
2021/10/04 13:51:05;;;;;;;8.95;6.25;;;;;;;15.01;53.10;98783.77;1810990;79;20876;-57
2021/10/04 13:53:31;;;;;;;14.43;6.90;;;;;;;15.02;52.99;98780.52;1810949;79;21117;-60
2021/10/04 13:56:02;;;;;;;16.77;7.03;;;;;;;15.03;53.08;98782.91;1810789;79;21511;-60
2021/10/04 13:58:27;;;;;;;12.43;6.80;;;;;;;15.03;52.93;98782.91;1810745;79;21358;-58
2021/10/04 14:00:55;;;;;;;23.57;7.75;;;;;;;15.03;53.31;98782.91;1812099;79;20923;-57
2021/10/04 14:03:26;;;;;;;12.85;7.20;;;;;;;15.03;53.16;98791.01;1801299;78;21533;-58
2021/10/04 14:05:52;;;;;;;15.15;6.42;;;;;;;15.01;52.37;98789.70;1767702;81;21054;-57
2021/10/04 14:08:19;;;;;;;13.98;6.17;;;;;;;14.98;52.51;98784.90;1799844;79;21491;-59
2021/10/04 14:10:45;;;;;;;13.10;6.90;;;;;;;14.95;52.07;98794.42;1767175;81;20964;-57
2021/10/04 14:13:12;;;;;;;15.40;6.90;;;;;;;14.93;52.27;98795.24;1767209;81;21055;-57
2021/10/04 14:15:38;;;;;;;9.73;6.50;;;;;;;14.92;52.42;98797.70;1766790;81;21117;-58
2021/10/04 14:18:05;;;;;;;20.37;7.97;;;;;;;14.91;52.10;98800.14;1766755;81;21510;-57
2021/10/04 14:20:32;;;;;;;13.75;7.50;;;;;;;14.91;52.35;98799.33;1766696;81;20972;-59
2021/10/04 14:22:58;;;;;;;17.73;7.28;;;;;;;14.92;52.39;98794.20;1767849;81;20861;-58
2021/10/04 14:25:25;;;;;;;12.35;7.08;;;;;;;14.90;52.11;98793.16;1767977;81;20908;-57
2021/10/04 14:27:53;;;;;;;14.78;7.67;;;;;;;14.89;52.18;98799.64;1768639;81;21413;-56
2021/10/04 14:30:22;;;;;;;18.50;7.80;;;;;;;14.87;52.39;98806.43;1768529;81;21464;-58
2021/10/04 14:32:49;;;;;;;14.98;7.60;;;;;;;14.85;52.10;98796.48;1768636;81;20960;-57
2021/10/04 14:35:20;;;;;;;14.80;7.25;;;;;;;14.82;52.10;98795.73;1768558;81;20885;-59
2021/10/04 14:37:47;;;;;;;15.60;6.53;;;;;;;14.80;52.27;98807.37;1767591;81;21380;-58
2021/10/04 14:40:14;;;;;;;14.80;6.67;;;;;;;14.75;52.37;98800.17;1767184;81;20913;-58
2021/10/04 14:42:40;;;;;;;15.83;7.25;;;;;;;14.72;52.39;98797.29;1768742;81;21463;-56
2021/10/04 14:45:08;;;;;;;11.43;6.80;;;;;;;14.69;52.64;98797.33;1768481;80;20996;-58
2021/10/04 14:47:35;;;;;;;12.88;6.47;;;;;;;14.65;52.78;98800.34;1768360;81;21456;-56
2021/10/04 14:50:03;;;;;;;18.07;6.67;;;;;;;14.62;53.10;98796.92;1768461;81;20901;-57
2021/10/04 14:52:30;;;;;;;10.32;6.62;;;;;;;14.57;53.18;98794.31;1768681;81;20916;-59
2021/10/04 14:54:57;;;;;;;13.88;6.20;;;;;;;14.55;53.39;98788.42;1768480;81;21118;-57
2021/10/04 14:57:24;;;;;;;15.15;6.50;;;;;;;14.51;53.38;98794.13;1768293;81;20889;-57
2021/10/04 14:59:50;;;;;;;70.22;31.42;;;;;;;14.48;53.40;98800.12;1768521;81;20932;-57
2021/10/04 15:02:17;;;;;;;22.77;9.33;;;;;;;14.44;53.20;98797.75;1777951;80;21044;-57
2021/10/04 15:04:44;;;;;;;23.80;13.60;;;;;;;14.41;53.15;98793.52;1778053;80;20928;-58
2021/10/04 15:07:10;;;;;;;33.73;23.27;;;;;;;14.40;52.77;98802.14;1778053;80;21166;-59
2021/10/04 15:09:37;;;;;;;23.47;15.45;;;;;;;14.36;52.70;98793.05;1778076;80;21000;-58
2021/10/04 15:12:04;;;;;;;46.28;28.42;;;;;;;14.33;52.28;98793.09;1778040;80;20912;-57
2021/10/04 15:14:30;;;;;;;32.45;19.48;;;;;;;14.31;52.34;98790.44;1777944;80;20932;-59
2021/10/04 15:16:59;;;;;;;33.67;18.65;;;;;;;14.28;52.07;98790.45;1768363;81;20929;-58
2021/10/04 15:19:25;;;;;;;29.50;20.43;;;;;;;14.24;52.28;98797.53;1778114;80;21762;-58
